sensor_id;sensor_type;location;lat;lon;timestamp;temperature;humidity
27633;DHT22;15046;50.930;13.334;2023-07-13T00:02:18;22.60;64.10
27633;DHT22;15046;50.930;13.334;2023-07-13T00:04:44;22.50;64.70
27633;DHT22;15046;50.930;13.334;2023-07-13T00:07:10;22.10;65.60
27633;DHT22;15046;50.930;13.334;2023-07-13T00:09:36;21.60;66.60
27633;DHT22;15046;50.930;13.334;2023-07-13T00:12:02;21.30;67.10
27633;DHT22;15046;50.930;13.334;2023-07-13T00:14:29;21.20;67.60
27633;DHT22;15046;50.930;13.334;2023-07-13T00:16:55;21.20;68.60
27633;DHT22;15046;50.930;13.334;2023-07-13T00:19:21;21.10;70.00
27633;DHT22;15046;50.930;13.334;2023-07-13T00:21:47;20.90;70.30
27633;DHT22;15046;50.930;13.334;2023-07-13T00:24:15;20.40;71.70
27633;DHT22;15046;50.930;13.334;2023-07-13T00:26:44;20.00;73.40
27633;DHT22;15046;50.930;13.334;2023-07-13T00:29:12;19.90;74.80
27633;DHT22;15046;50.930;13.334;2023-07-13T00:31:38;19.90;75.30
27633;DHT22;15046;50.930;13.334;2023-07-13T00:34:03;19.90;75.00
27633;DHT22;15046;50.930;13.334;2023-07-13T00:36:30;20.00;74.50
27633;DHT22;15046;50.930;13.334;2023-07-13T00:38:56;19.80;75.10
27633;DHT22;15046;50.930;13.334;2023-07-13T00:41:22;19.80;76.00
27633;DHT22;15046;50.930;13.334;2023-07-13T00:43:48;19.90;76.20
27633;DHT22;15046;50.930;13.334;2023-07-13T00:46:29;19.90;76.10
27633;DHT22;15046;50.930;13.334;2023-07-13T00:49:03;19.60;77.20
27633;DHT22;15046;50.930;13.334;2023-07-13T00:51:43;19.30;78.60
27633;DHT22;15046;50.930;13.334;2023-07-13T00:54:13;19.10;79.70
27633;DHT22;15046;50.930;13.334;2023-07-13T00:56:41;19.10;80.20
27633;DHT22;15046;50.930;13.334;2023-07-13T00:59:10;19.20;81.10
27633;DHT22;15046;50.930;13.334;2023-07-13T01:01:37;19.30;80.00
27633;DHT22;15046;50.930;13.334;2023-07-13T01:04:03;19.50;79.40
27633;DHT22;15046;50.930;13.334;2023-07-13T01:06:36;19.60;79.00
27633;DHT22;15046;50.930;13.334;2023-07-13T01:09:04;19.70;78.70
27633;DHT22;15046;50.930;13.334;2023-07-13T01:11:31;19.80;78.30
27633;DHT22;15046;50.930;13.334;2023-07-13T01:13:56;19.90;78.40
27633;DHT22;15046;50.930;13.334;2023-07-13T01:16:27;20.00;78.40
27633;DHT22;15046;50.930;13.334;2023-07-13T01:18:54;20.10;78.30
27633;DHT22;15046;50.930;13.334;2023-07-13T01:21:23;20.20;78.50
27633;DHT22;15046;50.930;13.334;2023-07-13T01:23:49;20.30;78.20
27633;DHT22;15046;50.930;13.334;2023-07-13T01:26:15;20.20;77.80
27633;DHT22;15046;50.930;13.334;2023-07-13T01:28:40;20.10;77.30
27633;DHT22;15046;50.930;13.334;2023-07-13T01:34:19;20.00;77.50
27633;DHT22;15046;50.930;13.334;2023-07-13T01:36:45;20.00;77.30
27633;DHT22;15046;50.930;13.334;2023-07-13T01:39:10;20.00;77.30
27633;DHT22;15046;50.930;13.334;2023-07-13T01:41:36;20.00;77.20
27633;DHT22;15046;50.930;13.334;2023-07-13T01:44:05;20.00;77.20
27633;DHT22;15046;50.930;13.334;2023-07-13T01:46:31;20.00;77.60
27633;DHT22;15046;50.930;13.334;2023-07-13T01:48:57;20.00;77.50
27633;DHT22;15046;50.930;13.334;2023-07-13T01:51:23;20.00;77.10
27633;DHT22;15046;50.930;13.334;2023-07-13T01:53:49;20.00;76.90
27633;DHT22;15046;50.930;13.334;2023-07-13T01:56:15;20.00;76.70
27633;DHT22;15046;50.930;13.334;2023-07-13T01:58:41;19.90;76.60
27633;DHT22;15046;50.930;13.334;2023-07-13T02:01:07;19.90;76.90
27633;DHT22;15046;50.930;13.334;2023-07-13T02:03:32;19.90;77.00
27633;DHT22;15046;50.930;13.334;2023-07-13T02:05:58;19.90;77.20
27633;DHT22;15046;50.930;13.334;2023-07-13T02:08:24;19.80;77.60
27633;DHT22;15046;50.930;13.334;2023-07-13T02:10:50;19.80;77.60
27633;DHT22;15046;50.930;13.334;2023-07-13T02:13:15;19.80;77.40
27633;DHT22;15046;50.930;13.334;2023-07-13T02:15:41;19.80;77.40
27633;DHT22;15046;50.930;13.334;2023-07-13T02:18:07;19.80;77.70
27633;DHT22;15046;50.930;13.334;2023-07-13T02:20:33;19.80;77.70
27633;DHT22;15046;50.930;13.334;2023-07-13T02:22:59;19.80;77.60
27633;DHT22;15046;50.930;13.334;2023-07-13T02:25:24;19.80;77.40
27633;DHT22;15046;50.930;13.334;2023-07-13T02:27:52;19.80;77.50
27633;DHT22;15046;50.930;13.334;2023-07-13T02:30:18;19.80;77.60
27633;DHT22;15046;50.930;13.334;2023-07-13T02:32:43;19.80;77.30
27633;DHT22;15046;50.930;13.334;2023-07-13T02:35:10;19.80;77.40
27633;DHT22;15046;50.930;13.334;2023-07-13T02:37:36;19.70;77.40
27633;DHT22;15046;50.930;13.334;2023-07-13T02:40:02;19.80;77.70
27633;DHT22;15046;50.930;13.334;2023-07-13T02:42:34;19.80;77.80
27633;DHT22;15046;50.930;13.334;2023-07-13T02:45:00;19.80;77.90
27633;DHT22;15046;50.930;13.334;2023-07-13T02:47:25;19.80;78.00
27633;DHT22;15046;50.930;13.334;2023-07-13T02:49:52;19.80;77.60
27633;DHT22;15046;50.930;13.334;2023-07-13T02:52:18;19.80;77.50
27633;DHT22;15046;50.930;13.334;2023-07-13T02:54:44;19.80;77.60
27633;DHT22;15046;50.930;13.334;2023-07-13T02:57:09;19.70;77.60
27633;DHT22;15046;50.930;13.334;2023-07-13T02:59:35;19.70;77.70
27633;DHT22;15046;50.930;13.334;2023-07-13T03:02:03;19.60;77.70
27633;DHT22;15046;50.930;13.334;2023-07-13T03:04:29;19.50;77.70
27633;DHT22;15046;50.930;13.334;2023-07-13T03:06:55;19.50;77.90
27633;DHT22;15046;50.930;13.334;2023-07-13T03:09:24;19.50;77.90
27633;DHT22;15046;50.930;13.334;2023-07-13T03:11:53;19.50;77.90
27633;DHT22;15046;50.930;13.334;2023-07-13T03:14:21;19.60;78.00
27633;DHT22;15046;50.930;13.334;2023-07-13T03:16:47;19.50;77.70
27633;DHT22;15046;50.930;13.334;2023-07-13T03:19:12;19.50;77.60
27633;DHT22;15046;50.930;13.334;2023-07-13T03:21:38;19.60;77.80
27633;DHT22;15046;50.930;13.334;2023-07-13T03:24:05;19.50;77.60
27633;DHT22;15046;50.930;13.334;2023-07-13T03:26:31;19.50;77.30
27633;DHT22;15046;50.930;13.334;2023-07-13T03:28:57;19.50;77.40
27633;DHT22;15046;50.930;13.334;2023-07-13T03:31:26;19.50;77.60
27633;DHT22;15046;50.930;13.334;2023-07-13T03:33:54;19.50;77.90
27633;DHT22;15046;50.930;13.334;2023-07-13T03:36:23;19.50;77.80
27633;DHT22;15046;50.930;13.334;2023-07-13T03:38:54;19.40;77.50
27633;DHT22;15046;50.930;13.334;2023-07-13T03:41:21;19.30;77.90
27633;DHT22;15046;50.930;13.334;2023-07-13T03:43:46;19.30;78.60
27633;DHT22;15046;50.930;13.334;2023-07-13T03:46:16;19.40;79.10
27633;DHT22;15046;50.930;13.334;2023-07-13T03:48:43;19.40;79.40
27633;DHT22;15046;50.930;13.334;2023-07-13T03:51:11;19.40;79.30
27633;DHT22;15046;50.930;13.334;2023-07-13T03:53:40;19.40;79.10
27633;DHT22;15046;50.930;13.334;2023-07-13T03:56:06;19.30;79.20
27633;DHT22;15046;50.930;13.334;2023-07-13T03:58:37;19.20;79.20
27633;DHT22;15046;50.930;13.334;2023-07-13T04:01:04;19.20;79.40
27633;DHT22;15046;50.930;13.334;2023-07-13T04:03:31;19.10;79.80
27633;DHT22;15046;50.930;13.334;2023-07-13T04:06:02;19.10;80.20
27633;DHT22;15046;50.930;13.334;2023-07-13T04:08:35;19.10;80.30
27633;DHT22;15046;50.930;13.334;2023-07-13T04:11:03;19.10;80.50
27633;DHT22;15046;50.930;13.334;2023-07-13T04:13:29;19.10;80.50
27633;DHT22;15046;50.930;13.334;2023-07-13T04:15:54;19.20;80.50
27633;DHT22;15046;50.930;13.334;2023-07-13T04:18:21;19.20;80.40
27633;DHT22;15046;50.930;13.334;2023-07-13T04:20:47;19.30;80.40
27633;DHT22;15046;50.930;13.334;2023-07-13T04:23:13;19.30;80.50
27633;DHT22;15046;50.930;13.334;2023-07-13T04:25:42;19.30;80.70
27633;DHT22;15046;50.930;13.334;2023-07-13T04:28:08;19.30;80.60
27633;DHT22;15046;50.930;13.334;2023-07-13T04:30:34;19.10;80.40
27633;DHT22;15046;50.930;13.334;2023-07-13T04:33:00;19.10;80.70
27633;DHT22;15046;50.930;13.334;2023-07-13T04:35:26;19.10;80.90
27633;DHT22;15046;50.930;13.334;2023-07-13T04:37:52;19.10;81.20
27633;DHT22;15046;50.930;13.334;2023-07-13T04:40:19;19.20;81.40
27633;DHT22;15046;50.930;13.334;2023-07-13T04:42:46;19.30;81.30
27633;DHT22;15046;50.930;13.334;2023-07-13T04:45:13;19.30;81.20
27633;DHT22;15046;50.930;13.334;2023-07-13T04:47:40;19.40;81.20
27633;DHT22;15046;50.930;13.334;2023-07-13T04:50:07;19.30;81.00
27633;DHT22;15046;50.930;13.334;2023-07-13T04:52:33;19.30;81.30
27633;DHT22;15046;50.930;13.334;2023-07-13T04:54:59;19.40;81.40
27633;DHT22;15046;50.930;13.334;2023-07-13T04:57:26;19.50;81.00
27633;DHT22;15046;50.930;13.334;2023-07-13T04:59:53;19.50;80.80
27633;DHT22;15046;50.930;13.334;2023-07-13T05:02:20;19.50;80.50
27633;DHT22;15046;50.930;13.334;2023-07-13T05:04:47;19.60;80.40
27633;DHT22;15046;50.930;13.334;2023-07-13T05:07:13;19.60;80.60
27633;DHT22;15046;50.930;13.334;2023-07-13T05:09:39;19.60;80.70
27633;DHT22;15046;50.930;13.334;2023-07-13T05:12:07;19.60;80.90
27633;DHT22;15046;50.930;13.334;2023-07-13T05:14:32;19.60;81.10
27633;DHT22;15046;50.930;13.334;2023-07-13T05:16:58;19.60;81.10
27633;DHT22;15046;50.930;13.334;2023-07-13T05:19:25;19.70;80.90
27633;DHT22;15046;50.930;13.334;2023-07-13T05:21:51;19.80;80.70
27633;DHT22;15046;50.930;13.334;2023-07-13T05:24:17;19.80;80.20
27633;DHT22;15046;50.930;13.334;2023-07-13T05:26:44;19.80;80.00
27633;DHT22;15046;50.930;13.334;2023-07-13T05:29:10;19.80;79.90
27633;DHT22;15046;50.930;13.334;2023-07-13T05:31:36;19.70;79.50
27633;DHT22;15046;50.930;13.334;2023-07-13T05:34:02;19.70;79.10
27633;DHT22;15046;50.930;13.334;2023-07-13T05:36:28;19.80;79.10
27633;DHT22;15046;50.930;13.334;2023-07-13T05:38:54;19.80;79.00
27633;DHT22;15046;50.930;13.334;2023-07-13T05:41:20;19.80;79.00
27633;DHT22;15046;50.930;13.334;2023-07-13T05:43:45;19.90;79.10
27633;DHT22;15046;50.930;13.334;2023-07-13T05:46:11;20.00;79.30
27633;DHT22;15046;50.930;13.334;2023-07-13T05:48:37;20.10;78.80
27633;DHT22;15046;50.930;13.334;2023-07-13T05:51:03;20.00;78.50
27633;DHT22;15046;50.930;13.334;2023-07-13T05:53:29;20.00;78.60
27633;DHT22;15046;50.930;13.334;2023-07-13T05:55:55;19.90;78.90
27633;DHT22;15046;50.930;13.334;2023-07-13T05:58:21;19.90;79.10
27633;DHT22;15046;50.930;13.334;2023-07-13T06:00:48;20.00;79.30
27633;DHT22;15046;50.930;13.334;2023-07-13T06:03:14;20.10;79.30
27633;DHT22;15046;50.930;13.334;2023-07-13T06:05:41;20.20;78.70
27633;DHT22;15046;50.930;13.334;2023-07-13T06:08:07;20.40;78.30
27633;DHT22;15046;50.930;13.334;2023-07-13T06:10:34;20.60;77.80
27633;DHT22;15046;50.930;13.334;2023-07-13T06:13:00;20.80;77.40
27633;DHT22;15046;50.930;13.334;2023-07-13T06:15:26;21.10;76.40
27633;DHT22;15046;50.930;13.334;2023-07-13T06:17:52;21.20;75.40
27633;DHT22;15046;50.930;13.334;2023-07-13T06:20:18;21.30;75.20
27633;DHT22;15046;50.930;13.334;2023-07-13T06:22:43;21.20;75.40
27633;DHT22;15046;50.930;13.334;2023-07-13T06:25:09;21.30;75.40
27633;DHT22;15046;50.930;13.334;2023-07-13T06:27:35;21.20;75.40
27633;DHT22;15046;50.930;13.334;2023-07-13T06:30:01;21.20;75.50
27633;DHT22;15046;50.930;13.334;2023-07-13T06:32:27;21.20;75.60
27633;DHT22;15046;50.930;13.334;2023-07-13T06:34:53;21.10;75.60
27633;DHT22;15046;50.930;13.334;2023-07-13T06:37:19;21.10;75.70
27633;DHT22;15046;50.930;13.334;2023-07-13T06:39:44;21.00;75.90
27633;DHT22;15046;50.930;13.334;2023-07-13T06:42:10;21.20;76.10
27633;DHT22;15046;50.930;13.334;2023-07-13T06:44:36;21.30;76.10
27633;DHT22;15046;50.930;13.334;2023-07-13T06:47:02;21.30;76.10
27633;DHT22;15046;50.930;13.334;2023-07-13T06:49:30;21.30;76.20
27633;DHT22;15046;50.930;13.334;2023-07-13T06:51:56;21.40;76.10
27633;DHT22;15046;50.930;13.334;2023-07-13T06:54:21;21.50;76.30
27633;DHT22;15046;50.930;13.334;2023-07-13T06:56:47;21.60;75.60
27633;DHT22;15046;50.930;13.334;2023-07-13T06:59:13;21.70;74.90
27633;DHT22;15046;50.930;13.334;2023-07-13T07:01:39;21.80;74.00
27633;DHT22;15046;50.930;13.334;2023-07-13T07:04:05;21.90;73.20
27633;DHT22;15046;50.930;13.334;2023-07-13T07:06:30;22.00;72.50
27633;DHT22;15046;50.930;13.334;2023-07-13T07:08:56;22.00;72.70
27633;DHT22;15046;50.930;13.334;2023-07-13T07:11:24;22.10;71.90
27633;DHT22;15046;50.930;13.334;2023-07-13T07:13:52;22.10;71.10
27633;DHT22;15046;50.930;13.334;2023-07-13T07:16:18;22.10;70.80
27633;DHT22;15046;50.930;13.334;2023-07-13T07:18:45;22.20;70.30
27633;DHT22;15046;50.930;13.334;2023-07-13T07:21:11;22.30;70.50
27633;DHT22;15046;50.930;13.334;2023-07-13T07:23:37;22.50;70.20
27633;DHT22;15046;50.930;13.334;2023-07-13T07:26:03;22.70;69.20
27633;DHT22;15046;50.930;13.334;2023-07-13T07:28:29;22.70;68.10
27633;DHT22;15046;50.930;13.334;2023-07-13T07:30:56;22.70;67.80
27633;DHT22;15046;50.930;13.334;2023-07-13T07:33:25;22.80;67.70
27633;DHT22;15046;50.930;13.334;2023-07-13T07:35:51;22.70;67.40
27633;DHT22;15046;50.930;13.334;2023-07-13T07:38:17;22.70;67.90
27633;DHT22;15046;50.930;13.334;2023-07-13T07:40:43;22.60;68.40
27633;DHT22;15046;50.930;13.334;2023-07-13T07:43:10;22.60;68.60
27633;DHT22;15046;50.930;13.334;2023-07-13T07:45:36;22.60;68.20
27633;DHT22;15046;50.930;13.334;2023-07-13T07:48:04;22.50;67.80
27633;DHT22;15046;50.930;13.334;2023-07-13T07:50:31;22.50;67.50
27633;DHT22;15046;50.930;13.334;2023-07-13T07:52:57;22.60;67.10
27633;DHT22;15046;50.930;13.334;2023-07-13T07:55:23;22.60;67.40
27633;DHT22;15046;50.930;13.334;2023-07-13T07:57:50;22.70;67.50
27633;DHT22;15046;50.930;13.334;2023-07-13T08:00:16;22.80;67.20
27633;DHT22;15046;50.930;13.334;2023-07-13T08:02:44;22.90;66.30
27633;DHT22;15046;50.930;13.334;2023-07-13T08:05:10;23.00;65.80
27633;DHT22;15046;50.930;13.334;2023-07-13T08:07:37;23.20;65.40
27633;DHT22;15046;50.930;13.334;2023-07-13T08:10:04;23.40;64.30
27633;DHT22;15046;50.930;13.334;2023-07-13T08:12:30;23.70;63.80
27633;DHT22;15046;50.930;13.334;2023-07-13T08:14:55;23.90;63.00
27633;DHT22;15046;50.930;13.334;2023-07-13T08:17:24;24.00;62.10
27633;DHT22;15046;50.930;13.334;2023-07-13T08:19:50;24.10;61.40
27633;DHT22;15046;50.930;13.334;2023-07-13T08:22:16;24.00;61.20
27633;DHT22;15046;50.930;13.334;2023-07-13T08:24:42;23.90;61.50
27633;DHT22;15046;50.930;13.334;2023-07-13T08:27:09;23.90;61.90
27633;DHT22;15046;50.930;13.334;2023-07-13T08:29:37;23.90;61.60
27633;DHT22;15046;50.930;13.334;2023-07-13T08:32:04;23.80;61.10
27633;DHT22;15046;50.930;13.334;2023-07-13T08:34:30;23.70;61.20
27633;DHT22;15046;50.930;13.334;2023-07-13T08:36:56;23.50;61.40
27633;DHT22;15046;50.930;13.334;2023-07-13T08:39:21;23.50;61.20
27633;DHT22;15046;50.930;13.334;2023-07-13T08:41:52;23.40;61.10
27633;DHT22;15046;50.930;13.334;2023-07-13T08:44:30;23.40;61.00
27633;DHT22;15046;50.930;13.334;2023-07-13T08:47:03;23.50;61.80
27633;DHT22;15046;50.930;13.334;2023-07-13T08:49:29;23.80;62.10
27633;DHT22;15046;50.930;13.334;2023-07-13T08:54:29;24.20;61.40
27633;DHT22;15046;50.930;13.334;2023-07-13T08:56:58;24.40;60.30
27633;DHT22;15046;50.930;13.334;2023-07-13T08:59:28;24.50;59.80
27633;DHT22;15046;50.930;13.334;2023-07-13T09:10:53;24.00;59.40
27633;DHT22;15046;50.930;13.334;2023-07-13T09:13:37;23.80;59.20
27633;DHT22;15046;50.930;13.334;2023-07-13T09:16:05;23.80;59.60
27633;DHT22;15046;50.930;13.334;2023-07-13T09:18:42;23.90;59.90
27633;DHT22;15046;50.930;13.334;2023-07-13T09:21:31;24.20;60.00
27633;DHT22;15046;50.930;13.334;2023-07-13T09:24:27;24.60;59.80
27633;DHT22;15046;50.930;13.334;2023-07-13T09:26:55;24.90;59.90
27633;DHT22;15046;50.930;13.334;2023-07-13T09:29:29;25.20;59.10
27633;DHT22;15046;50.930;13.334;2023-07-13T09:31:58;25.60;58.70
27633;DHT22;15046;50.930;13.334;2023-07-13T09:34:26;25.90;57.10
27633;DHT22;15046;50.930;13.334;2023-07-13T09:36:52;26.10;56.20
27633;DHT22;15046;50.930;13.334;2023-07-13T09:39:28;26.10;56.30
27633;DHT22;15046;50.930;13.334;2023-07-13T09:42:06;26.00;56.20
27633;DHT22;15046;50.930;13.334;2023-07-13T09:47:16;26.20;56.30
27633;DHT22;15046;50.930;13.334;2023-07-13T09:49:42;26.20;56.60
27633;DHT22;15046;50.930;13.334;2023-07-13T09:52:15;26.10;56.20
27633;DHT22;15046;50.930;13.334;2023-07-13T09:54:46;26.10;56.20
27633;DHT22;15046;50.930;13.334;2023-07-13T09:57:23;26.50;55.70
27633;DHT22;15046;50.930;13.334;2023-07-13T09:59:52;26.70;54.20
27633;DHT22;15046;50.930;13.334;2023-07-13T10:02:32;26.50;54.10
27633;DHT22;15046;50.930;13.334;2023-07-13T10:05:04;26.30;53.50
27633;DHT22;15046;50.930;13.334;2023-07-13T10:07:32;26.20;53.80
27633;DHT22;15046;50.930;13.334;2023-07-13T10:10:00;26.30;54.10
27633;DHT22;15046;50.930;13.334;2023-07-13T10:12:29;26.70;54.20
27633;DHT22;15046;50.930;13.334;2023-07-13T10:14:57;27.50;53.50
27633;DHT22;15046;50.930;13.334;2023-07-13T10:17:31;27.70;52.60
27633;DHT22;15046;50.930;13.334;2023-07-13T10:20:05;27.80;52.00
27633;DHT22;15046;50.930;13.334;2023-07-13T10:22:54;28.20;52.30
27633;DHT22;15046;50.930;13.334;2023-07-13T10:25:31;29.00;51.60
27633;DHT22;15046;50.930;13.334;2023-07-13T10:30:43;28.20;52.00
27633;DHT22;15046;50.930;13.334;2023-07-13T10:33:12;27.50;52.80
27633;DHT22;15046;50.930;13.334;2023-07-13T10:35:40;27.10;53.50
27633;DHT22;15046;50.930;13.334;2023-07-13T10:38:13;26.80;53.40
27633;DHT22;15046;50.930;13.334;2023-07-13T10:40:58;26.60;53.40
27633;DHT22;15046;50.930;13.334;2023-07-13T10:43:33;26.60;53.50
27633;DHT22;15046;50.930;13.334;2023-07-13T10:46:03;26.90;53.70
27633;DHT22;15046;50.930;13.334;2023-07-13T10:48:30;27.30;53.00
27633;DHT22;15046;50.930;13.334;2023-07-13T10:50:58;27.30;52.90
27633;DHT22;15046;50.930;13.334;2023-07-13T10:53:31;26.90;53.10
27633;DHT22;15046;50.930;13.334;2023-07-13T10:56:03;26.60;53.80
27633;DHT22;15046;50.930;13.334;2023-07-13T10:58:37;26.50;53.90
27633;DHT22;15046;50.930;13.334;2023-07-13T11:08:57;28.70;51.30
27633;DHT22;15046;50.930;13.334;2023-07-13T11:18:51;29.10;51.30
27633;DHT22;15046;50.930;13.334;2023-07-13T11:21:20;29.50;50.70
27633;DHT22;15046;50.930;13.334;2023-07-13T11:23:54;30.30;50.80
27633;DHT22;15046;50.930;13.334;2023-07-13T11:26:43;31.60;50.00
27633;DHT22;15046;50.930;13.334;2023-07-13T11:31:56;33.40;46.70
27633;DHT22;15046;50.930;13.334;2023-07-13T11:34:35;33.80;45.30
27633;DHT22;15046;50.930;13.334;2023-07-13T11:37:02;34.10;44.80
27633;DHT22;15046;50.930;13.334;2023-07-13T11:42:01;35.10;43.90
27633;DHT22;15046;50.930;13.334;2023-07-13T11:44:30;35.50;43.10
27633;DHT22;15046;50.930;13.334;2023-07-13T11:46:58;35.70;42.30
27633;DHT22;15046;50.930;13.334;2023-07-13T11:49:31;34.70;42.80
27633;DHT22;15046;50.930;13.334;2023-07-13T11:51:58;33.50;43.80
27633;DHT22;15046;50.930;13.334;2023-07-13T11:54:26;32.40;44.40
27633;DHT22;15046;50.930;13.334;2023-07-13T11:56:55;31.60;45.60
27633;DHT22;15046;50.930;13.334;2023-07-13T11:59:23;31.20;46.10
27633;DHT22;15046;50.930;13.334;2023-07-13T12:01:53;30.80;46.30
27633;DHT22;15046;50.930;13.334;2023-07-13T12:04:27;30.60;46.60
27633;DHT22;15046;50.930;13.334;2023-07-13T12:09:30;30.50;46.60
27633;DHT22;15046;50.930;13.334;2023-07-13T12:11:57;30.10;47.10
27633;DHT22;15046;50.930;13.334;2023-07-13T12:14:26;30.10;47.60
27633;DHT22;15046;50.930;13.334;2023-07-13T12:16:53;30.90;47.30
27633;DHT22;15046;50.930;13.334;2023-07-13T12:19:25;32.20;46.00
27633;DHT22;15046;50.930;13.334;2023-07-13T12:21:55;33.20;45.90
27633;DHT22;15046;50.930;13.334;2023-07-13T12:24:22;34.00;44.90
27633;DHT22;15046;50.930;13.334;2023-07-13T12:27:00;34.60;44.20
27633;DHT22;15046;50.930;13.334;2023-07-13T12:29:27;35.30;42.40
27633;DHT22;15046;50.930;13.334;2023-07-13T12:31:53;35.70;42.90
27633;DHT22;15046;50.930;13.334;2023-07-13T12:34:20;36.10;42.20
27633;DHT22;15046;50.930;13.334;2023-07-13T12:37:10;36.20;41.50
27633;DHT22;15046;50.930;13.334;2023-07-13T12:39:37;35.50;41.30
27633;DHT22;15046;50.930;13.334;2023-07-13T12:42:32;34.20;42.20
27633;DHT22;15046;50.930;13.334;2023-07-13T12:45:43;34.00;42.80
27633;DHT22;15046;50.930;13.334;2023-07-13T12:47:56;33.60;43.00
27633;DHT22;15046;50.930;13.334;2023-07-13T12:50:30;32.80;42.80
27633;DHT22;15046;50.930;13.334;2023-07-13T12:53:05;32.60;43.40
27633;DHT22;15046;50.930;13.334;2023-07-13T12:55:49;32.80;43.10
27633;DHT22;15046;50.930;13.334;2023-07-13T12:58:27;32.40;43.60
27633;DHT22;15046;50.930;13.334;2023-07-13T13:00:58;32.90;43.50
27633;DHT22;15046;50.930;13.334;2023-07-13T13:03:36;33.60;42.20
27633;DHT22;15046;50.930;13.334;2023-07-13T13:06:27;34.30;41.00
27633;DHT22;15046;50.930;13.334;2023-07-13T13:08:58;34.40;40.70
27633;DHT22;15046;50.930;13.334;2023-07-13T13:11:25;34.00;42.00
27633;DHT22;15046;50.930;13.334;2023-07-13T13:13:52;34.40;42.10
27633;DHT22;15046;50.930;13.334;2023-07-13T13:16:30;34.10;41.20
27633;DHT22;15046;50.930;13.334;2023-07-13T13:21:40;33.30;42.00
27633;DHT22;15046;50.930;13.334;2023-07-13T13:24:19;33.20;42.50
27633;DHT22;15046;50.930;13.334;2023-07-13T13:26:46;33.00;41.50
27633;DHT22;15046;50.930;13.334;2023-07-13T13:29:15;32.10;42.40
27633;DHT22;15046;50.930;13.334;2023-07-13T13:31:42;31.50;43.50
27633;DHT22;15046;50.930;13.334;2023-07-13T13:34:16;31.00;43.80
27633;DHT22;15046;50.930;13.334;2023-07-13T13:36:43;30.80;44.50
27633;DHT22;15046;50.930;13.334;2023-07-13T13:39:24;30.70;44.10
27633;DHT22;15046;50.930;13.334;2023-07-13T13:41:52;30.90;44.50
27633;DHT22;15046;50.930;13.334;2023-07-13T13:44:19;32.10;43.90
27633;DHT22;15046;50.930;13.334;2023-07-13T13:46:53;33.30;43.50
27633;DHT22;15046;50.930;13.334;2023-07-13T13:49:23;34.20;42.60
27633;DHT22;15046;50.930;13.334;2023-07-13T13:51:49;34.10;41.80
27633;DHT22;15046;50.930;13.334;2023-07-13T13:54:17;33.60;42.60
27633;DHT22;15046;50.930;13.334;2023-07-13T13:56:44;33.20;42.90
27633;DHT22;15046;50.930;13.334;2023-07-13T13:59:11;33.30;43.00
27633;DHT22;15046;50.930;13.334;2023-07-13T14:01:38;33.00;42.40
27633;DHT22;15046;50.930;13.334;2023-07-13T14:04:05;32.80;42.70
27633;DHT22;15046;50.930;13.334;2023-07-13T14:06:33;32.30;42.90
27633;DHT22;15046;50.930;13.334;2023-07-13T14:09:02;31.70;42.80
27633;DHT22;15046;50.930;13.334;2023-07-13T14:11:29;31.00;43.40
27633;DHT22;15046;50.930;13.334;2023-07-13T14:13:58;30.40;44.10
27633;DHT22;15046;50.930;13.334;2023-07-13T14:16:30;30.10;44.20
27633;DHT22;15046;50.930;13.334;2023-07-13T14:18:57;29.90;44.80
27633;DHT22;15046;50.930;13.334;2023-07-13T14:21:27;29.80;45.80
27633;DHT22;15046;50.930;13.334;2023-07-13T14:23:52;29.90;45.60
27633;DHT22;15046;50.930;13.334;2023-07-13T14:26:23;29.90;45.40
27633;DHT22;15046;50.930;13.334;2023-07-13T14:28:52;29.90;45.50
27633;DHT22;15046;50.930;13.334;2023-07-13T14:31:19;30.60;45.50
27633;DHT22;15046;50.930;13.334;2023-07-13T14:33:45;31.30;45.20
27633;DHT22;15046;50.930;13.334;2023-07-13T14:39:11;33.10;42.20
27633;DHT22;15046;50.930;13.334;2023-07-13T14:41:38;32.90;41.60
27633;DHT22;15046;50.930;13.334;2023-07-13T14:44:17;32.30;41.70
27633;DHT22;15046;50.930;13.334;2023-07-13T14:46:44;32.00;43.80
27633;DHT22;15046;50.930;13.334;2023-07-13T14:51:50;33.00;42.60
27633;DHT22;15046;50.930;13.334;2023-07-13T14:54:16;33.20;41.10
27633;DHT22;15046;50.930;13.334;2023-07-13T14:56:41;33.20;40.90
27633;DHT22;15046;50.930;13.334;2023-07-13T14:59:07;33.20;41.20
27633;DHT22;15046;50.930;13.334;2023-07-13T15:01:37;33.00;41.50
27633;DHT22;15046;50.930;13.334;2023-07-13T15:04:04;33.30;41.70
27633;DHT22;15046;50.930;13.334;2023-07-13T15:06:30;33.60;40.90
27633;DHT22;15046;50.930;13.334;2023-07-13T15:08:57;33.30;40.20
27633;DHT22;15046;50.930;13.334;2023-07-13T15:11:23;32.80;40.50
27633;DHT22;15046;50.930;13.334;2023-07-13T15:13:49;32.30;40.90
27633;DHT22;15046;50.930;13.334;2023-07-13T15:16:22;31.80;41.30
27633;DHT22;15046;50.930;13.334;2023-07-13T15:18:49;31.40;41.90
27633;DHT22;15046;50.930;13.334;2023-07-13T15:21:23;31.60;42.10
27633;DHT22;15046;50.930;13.334;2023-07-13T15:23:50;31.70;42.40
27633;DHT22;15046;50.930;13.334;2023-07-13T15:26:17;32.30;42.20
27633;DHT22;15046;50.930;13.334;2023-07-13T15:28:44;32.90;41.30
27633;DHT22;15046;50.930;13.334;2023-07-13T15:31:21;33.30;40.90
27633;DHT22;15046;50.930;13.334;2023-07-13T15:33:48;33.40;39.70
27633;DHT22;15046;50.930;13.334;2023-07-13T15:36:16;33.20;39.50
27633;DHT22;15046;50.930;13.334;2023-07-13T15:38:43;32.70;40.10
27633;DHT22;15046;50.930;13.334;2023-07-13T15:41:28;32.00;40.40
27633;DHT22;15046;50.930;13.334;2023-07-13T15:43:58;31.50;41.00
27633;DHT22;15046;50.930;13.334;2023-07-13T15:46:25;31.10;41.50
27633;DHT22;15046;50.930;13.334;2023-07-13T15:48:53;30.80;42.00
27633;DHT22;15046;50.930;13.334;2023-07-13T15:53:48;32.20;41.30
27633;DHT22;15046;50.930;13.334;2023-07-13T15:56:20;33.00;40.50
27633;DHT22;15046;50.930;13.334;2023-07-13T15:58:48;33.40;39.20
27633;DHT22;15046;50.930;13.334;2023-07-13T16:01:14;33.50;38.90
27633;DHT22;15046;50.930;13.334;2023-07-13T16:03:40;33.50;38.60
27633;DHT22;15046;50.930;13.334;2023-07-13T16:06:29;33.70;38.90
27633;DHT22;15046;50.930;13.334;2023-07-13T16:08:56;33.90;38.80
27633;DHT22;15046;50.930;13.334;2023-07-13T16:11:28;34.10;38.20
27633;DHT22;15046;50.930;13.334;2023-07-13T16:13:56;34.20;38.60
27633;DHT22;15046;50.930;13.334;2023-07-13T16:16:26;34.50;38.50
27633;DHT22;15046;50.930;13.334;2023-07-13T16:18:55;34.80;37.70